Time;durP1;ratioP1;P1;durP2;ratioP2;P2;SDS_P1;SDS_P2;PMS_P1;PMS_P2;Temp;Humidity;BMP_temperature;BMP_pressure;BME280_temperature;BME280_humidity;BME280_pressure;Samples;Min_cycle;Max_cycle;Signal;HPM_P1;HPM_P2
2023/09/21 00:01:48;;;;;;;2.50;1.50;;;21.20;74.70;;;;;;10498316;28;20032;-58
2023/09/21 00:06:49;;;;;;;3.10;1.65;;;21.20;74.60;;;;;;10498298;28;20105;-58
2023/09/21 00:11:51;;;;;;;2.67;1.60;;;21.20;74.70;;;;;;10474435;28;20029;-58
2023/09/21 00:16:52;;;;;;;2.67;1.15;;;21.20;74.80;;;;;;10466973;28;20036;-56
2023/09/21 00:21:57;;;;;;;2.35;1.52;;;21.20;74.70;;;;;;10471820;28;20048;-58
2023/09/21 00:26:59;;;;;;;2.03;1.20;;;21.20;74.60;;;;;;10456124;28;20040;-58
2023/09/21 00:31:59;;;;;;;3.35;2.03;;;21.20;74.60;;;;;;10469076;28;20057;-58
2023/09/21 00:37:00;;;;;;;2.53;1.45;;;21.20;74.50;;;;;;10454955;28;20021;-58
2023/09/21 00:42:01;;;;;;;3.10;1.55;;;21.20;74.50;;;;;;10455231;28;20068;-58
2023/09/21 00:47:03;;;;;;;3.25;2.15;;;21.20;74.60;;;;;;10454998;28;20024;-58
2023/09/21 00:52:05;;;;;;;2.97;1.70;;;21.20;74.50;;;;;;10454994;28;20073;-58
2023/09/21 00:57:11;;;;;;;2.83;1.65;;;21.20;74.50;;;;;;10455251;28;20033;-58
2023/09/21 01:02:12;;;;;;;1.80;1.30;;;21.10;74.50;;;;;;10487256;28;20024;-58
2023/09/21 01:07:20;;;;;;;1.70;1.52;;;21.10;74.30;;;;;;10457012;28;20021;-57
2023/09/21 01:12:22;;;;;;;2.60;1.35;;;21.20;74.50;;;;;;10479744;28;20569;-58
2023/09/21 01:17:23;;;;;;;3.15;1.73;;;21.10;74.40;;;;;;10466678;28;20055;-58
2023/09/21 01:22:28;;;;;;;2.42;1.75;;;21.10;74.30;;;;;;10453646;28;20036;-58
2023/09/21 01:27:29;;;;;;;3.78;2.13;;;21.10;74.30;;;;;;10477442;28;20037;-58
2023/09/21 01:32:29;;;;;;;2.85;1.73;;;21.10;74.30;;;;;;10468748;28;20029;-58
2023/09/21 01:37:30;;;;;;;2.22;1.42;;;21.10;74.30;;;;;;10453565;28;20017;-58
2023/09/21 01:42:31;;;;;;;3.30;1.50;;;21.10;74.20;;;;;;10452961;28;20141;-58
2023/09/21 01:47:32;;;;;;;3.10;2.30;;;21.10;74.30;;;;;;10453059;28;20033;-58
2023/09/21 01:52:34;;;;;;;2.53;1.50;;;21.10;74.10;;;;;;10487404;28;20033;-58
2023/09/21 01:57:35;;;;;;;4.30;1.88;;;21.10;74.10;;;;;;10494065;28;20115;-58
2023/09/21 02:02:36;;;;;;;3.28;1.77;;;21.10;74.00;;;;;;10480193;28;20032;-58
2023/09/21 02:07:37;;;;;;;2.88;1.52;;;21.10;74.10;;;;;;10452270;28;20047;-58
2023/09/21 02:12:39;;;;;;;2.22;1.30;;;21.10;74.10;;;;;;10451469;28;20033;-58
2023/09/21 02:17:41;;;;;;;3.10;1.48;;;21.10;74.00;;;;;;10469102;28;20033;-58
2023/09/21 02:22:45;;;;;;;3.08;1.65;;;21.10;74.00;;;;;;10492547;28;20039;-56
2023/09/21 02:27:47;;;;;;;1.85;1.45;;;21.10;74.00;;;;;;10492829;28;20387;-58
2023/09/21 02:32:53;;;;;;;3.80;1.88;;;21.10;74.00;;;;;;10464278;28;20476;-58
2023/09/21 02:37:55;;;;;;;3.47;1.40;;;21.10;74.00;;;;;;10451097;28;20060;-58
2023/09/21 02:42:56;;;;;;;2.30;1.40;;;21.10;73.90;;;;;;10450827;28;20108;-58
2023/09/21 02:48:01;;;;;;;2.72;1.52;;;21.10;73.90;;;;;;10450520;28;20040;-57
2023/09/21 02:53:08;;;;;;;3.22;1.77;;;21.10;73.90;;;;;;10450199;28;20029;-58
2023/09/21 02:58:12;;;;;;;2.60;1.55;;;21.00;73.80;;;;;;10449861;28;20025;-57
2023/09/21 03:03:16;;;;;;;4.03;1.65;;;21.00;73.90;;;;;;10472335;28;20054;-58
2023/09/21 03:08:18;;;;;;;2.47;1.80;;;21.10;73.80;;;;;;10491513;28;20499;-57
2023/09/21 03:13:21;;;;;;;2.95;1.67;;;21.00;73.90;;;;;;10491595;28;20039;-58
2023/09/21 03:18:23;;;;;;;2.70;1.52;;;21.00;73.80;;;;;;10454510;28;20136;-58
2023/09/21 03:23:26;;;;;;;2.60;1.60;;;21.00;73.70;;;;;;10450023;28;20048;-58
2023/09/21 03:28:28;;;;;;;2.83;1.90;;;21.00;73.70;;;;;;10460425;28;20020;-58
2023/09/21 03:33:29;;;;;;;2.08;1.27;;;21.00;73.80;;;;;;10471086;28;20551;-57
2023/09/21 03:38:30;;;;;;;5.20;2.15;;;21.00;73.70;;;;;;10458166;28;20036;-57
2023/09/21 03:43:30;;;;;;;2.78;1.48;;;21.10;73.50;;;;;;10462599;28;20016;-57
2023/09/21 03:48:35;;;;;;;2.60;1.30;;;21.20;73.40;;;;;;10477916;28;20028;-56
2023/09/21 03:53:36;;;;;;;2.65;1.58;;;21.20;73.30;;;;;;10463275;28;20076;-57
2023/09/21 03:58:36;;;;;;;3.50;1.85;;;21.20;73.10;;;;;;10455467;28;20036;-55
2023/09/21 04:03:37;;;;;;;4.03;1.52;;;21.20;73.10;;;;;;10446425;28;20033;-56
2023/09/21 04:08:38;;;;;;;9.80;1.88;;;21.20;73.30;;;;;;10445659;28;20383;-55
2023/09/21 04:13:39;;;;;;;2.50;1.90;;;21.10;73.30;;;;;;10487705;28;20024;-56
2023/09/21 04:18:40;;;;;;;4.00;1.15;;;21.10;73.30;;;;;;10461324;28;20053;-56
2023/09/21 04:23:41;;;;;;;3.90;1.90;;;21.10;73.60;;;;;;10457078;28;20090;-56
2023/09/21 04:28:42;;;;;;;3.08;1.48;;;21.00;73.40;;;;;;10460075;28;20028;-56
2023/09/21 04:33:42;;;;;;;4.25;1.85;;;21.00;73.50;;;;;;10458373;28;20079;-56
2023/09/21 04:38:47;;;;;;;2.67;1.38;;;21.00;73.50;;;;;;10455614;28;20712;-56
2023/09/21 04:43:48;;;;;;;1.98;1.33;;;21.00;73.60;;;;;;10480222;28;20475;-57
2023/09/21 04:48:49;;;;;;;3.72;1.48;;;21.00;73.70;;;;;;10496657;28;20036;-57
2023/09/21 04:53:50;;;;;;;5.35;1.40;;;21.00;73.70;;;;;;10496688;28;20031;-56
2023/09/21 04:58:55;;;;;;;2.47;1.35;;;21.00;73.60;;;;;;10496017;28;20055;-56
2023/09/21 05:03:56;;;;;;;8.90;2.28;;;21.00;73.70;;;;;;10462968;28;20033;-56
2023/09/21 05:08:58;;;;;;;5.60;1.45;;;21.10;73.30;;;;;;10454951;28;20385;-56
2023/09/21 05:13:59;;;;;;;8.70;2.70;;;21.30;73.00;;;;;;10453207;28;20424;-56
2023/09/21 05:19:00;;;;;;;5.43;1.80;;;21.30;72.90;;;;;;10482261;28;20055;-57
2023/09/21 05:24:00;;;;;;;10.48;2.00;;;21.30;72.90;;;;;;10495196;28;20484;-56
2023/09/21 05:29:02;;;;;;;12.77;2.78;;;21.30;72.60;;;;;;10498379;28;20365;-57
2023/09/21 05:34:03;;;;;;;10.32;2.67;;;21.30;72.90;;;;;;10454075;28;20120;-57
2023/09/21 05:39:04;;;;;;;6.63;2.60;;;21.30;73.10;;;;;;10458631;28;20029;-59
2023/09/21 05:44:05;;;;;;;8.70;2.10;;;21.30;73.30;;;;;;10453409;28;20616;-56
2023/09/21 05:49:17;;;;;;;14.77;2.90;;;21.30;73.10;;;;;;10464674;28;20041;-58
2023/09/21 05:54:23;;;;;;;16.80;3.85;;;21.30;72.60;;;;;;10452938;28;20406;-57
2023/09/21 05:59:24;;;;;;;13.50;2.50;;;21.30;73.50;;;;;;10479648;28;20029;-58
2023/09/21 06:04:25;;;;;;;10.60;2.83;;;21.30;72.90;;;;;;10493972;28;20033;-56
2023/09/21 06:09:26;;;;;;;11.38;3.20;;;21.30;73.00;;;;;;10493248;28;20463;-58
2023/09/21 06:14:27;;;;;;;10.07;2.47;;;21.30;72.50;;;;;;10476303;28;20107;-57
2023/09/21 06:19:28;;;;;;;9.90;2.90;;;21.20;72.80;;;;;;10483477;28;20048;-57
2023/09/21 06:24:28;;;;;;;6.38;2.63;;;21.20;73.20;;;;;;10493506;28;20028;-57
2023/09/21 06:29:29;;;;;;;7.75;2.58;;;21.20;73.30;;;;;;10479053;28;20044;-57
2023/09/21 06:34:33;;;;;;;7.97;2.05;;;21.20;73.10;;;;;;10431254;28;20025;-57
2023/09/21 06:39:33;;;;;;;5.72;2.47;;;21.20;73.40;;;;;;10484613;28;20020;-58
2023/09/21 06:44:34;;;;;;;5.30;2.20;;;21.10;73.30;;;;;;10463134;28;20028;-57
2023/09/21 06:49:35;;;;;;;5.78;2.33;;;21.10;73.40;;;;;;10490328;28;20596;-57
2023/09/21 06:54:38;;;;;;;7.53;2.30;;;21.10;73.50;;;;;;10491168;28;20433;-57
2023/09/21 06:59:39;;;;;;;4.38;2.33;;;21.10;73.60;;;;;;10474533;28;20468;-58
2023/09/21 07:04:40;;;;;;;5.30;1.60;;;21.10;73.60;;;;;;10449334;28;20116;-57
2023/09/21 07:09:40;;;;;;;5.75;2.40;;;21.10;73.60;;;;;;10448938;28;20032;-57
2023/09/21 07:14:41;;;;;;;5.80;2.03;;;21.10;73.60;;;;;;10448730;28;20696;-58
2023/09/21 07:19:42;;;;;;;4.15;1.67;;;21.10;73.70;;;;;;10483133;28;20610;-57
2023/09/21 07:24:43;;;;;;;4.88;1.70;;;21.10;73.70;;;;;;10490582;28;20020;-57
2023/09/21 07:29:44;;;;;;;3.08;1.83;;;21.10;73.70;;;;;;10486848;28;20075;-56
2023/09/21 07:34:47;;;;;;;4.55;1.50;;;21.00;73.60;;;;;;10449469;28;20028;-57
2023/09/21 07:39:48;;;;;;;3.08;1.65;;;21.00;73.70;;;;;;10448273;28;20028;-57
2023/09/21 07:44:49;;;;;;;4.10;1.88;;;21.00;73.70;;;;;;10451053;28;20388;-58
2023/09/21 07:49:50;;;;;;;8.18;2.28;;;21.00;73.70;;;;;;10456453;28;20037;-57
2023/09/21 07:54:51;;;;;;;3.20;1.70;;;21.00;73.70;;;;;;10456647;28;20021;-57
2023/09/21 07:59:52;;;;;;;4.65;2.40;;;21.00;73.80;;;;;;10456621;28;20029;-57
2023/09/21 08:04:53;;;;;;;2.85;1.52;;;21.00;73.80;;;;;;10456136;28;20033;-57
2023/09/21 08:09:55;;;;;;;4.47;1.85;;;21.00;73.90;;;;;;10456218;28;20532;-57
2023/09/21 08:14:57;;;;;;;2.88;1.90;;;21.00;73.90;;;;;;10455859;28;20484;-57
2023/09/21 08:20:00;;;;;;;4.85;1.80;;;21.00;74.00;;;;;;10481669;28;20041;-57
2023/09/21 08:25:00;;;;;;;3.72;1.60;;;21.00;74.00;;;;;;10455762;28;20864;-56
2023/09/21 08:30:04;;;;;;;2.55;2.13;;;21.00;74.00;;;;;;10467360;28;20098;-58
2023/09/21 08:35:05;;;;;;;2.95;1.90;;;21.00;74.10;;;;;;10455441;28;20476;-58
2023/09/21 08:40:07;;;;;;;2.88;1.55;;;21.00;74.10;;;;;;10455372;28;20079;-57
2023/09/21 08:45:11;;;;;;;3.17;1.88;;;20.90;74.00;;;;;;10454968;28;20111;-57
2023/09/21 08:50:15;;;;;;;4.25;2.05;;;20.90;74.00;;;;;;10477334;28;20056;-57
2023/09/21 08:55:16;;;;;;;3.05;1.80;;;21.00;74.10;;;;;;10495304;28;20570;-57
2023/09/21 09:00:19;;;;;;;2.53;1.50;;;20.90;74.10;;;;;;10495046;28;20066;-57
2023/09/21 09:05:20;;;;;;;2.22;1.58;;;20.90;74.10;;;;;;10458306;28;20123;-57
2023/09/21 09:10:20;;;;;;;3.30;1.23;;;20.90;74.20;;;;;;10453312;28;20040;-57
2023/09/21 09:15:34;;;;;;;2.08;1.38;;;20.90;74.20;;;;;;10453159;28;20660;-56
2023/09/21 09:20:38;;;;;;;4.53;1.50;;;20.90;74.20;;;;;;10481735;28;20116;-57
2023/09/21 09:25:40;;;;;;;4.20;1.70;;;20.90;74.20;;;;;;10463747;28;20032;-57
2023/09/21 09:30:41;;;;;;;2.97;1.70;;;20.90;74.20;;;;;;10464595;28;20037;-57
2023/09/21 09:35:45;;;;;;;2.67;1.60;;;20.90;74.20;;;;;;10452913;28;20241;-57
2023/09/21 09:40:46;;;;;;;3.90;1.85;;;20.90;74.30;;;;;;10452814;28;20499;-57
2023/09/21 09:45:48;;;;;;;3.45;2.55;;;20.90;74.90;;;;;;10474559;28;20044;-57
2023/09/21 09:50:55;;;;;;;2.50;1.30;;;20.90;74.30;;;;;;10451622;28;20029;-57
2023/09/21 09:55:58;;;;;;;1.80;1.10;;;20.90;74.30;;;;;;10477474;28;20430;-57
2023/09/21 10:01:00;;;;;;;2.38;1.50;;;20.90;74.30;;;;;;10450407;28;20044;-57
2023/09/21 10:06:03;;;;;;;3.33;1.38;;;20.90;74.40;;;;;;10469836;28;20033;-57
2023/09/21 10:11:06;;;;;;;3.20;1.83;;;20.90;74.40;;;;;;10460522;28;20040;-57
2023/09/21 10:16:13;;;;;;;3.00;1.48;;;20.90;74.30;;;;;;10456485;28;20099;-57
2023/09/21 10:21:31;;;;;;;2.28;1.40;;;20.90;74.40;;;;;;10451110;28;20033;-57
2023/09/21 10:26:41;;;;;;;1.70;1.20;;;20.90;74.40;;;;;;10451615;28;20135;-57
2023/09/21 10:31:55;;;;;;;1.92;1.27;;;20.90;74.40;;;;;;10461748;28;20079;-56
2023/09/21 10:37:10;;;;;;;1.77;1.30;;;20.90;74.40;;;;;;10479842;28;20029;-57
2023/09/21 10:42:12;;;;;;;2.60;1.15;;;20.90;74.40;;;;;;10492089;28;20451;-58
2023/09/21 10:47:15;;;;;;;2.55;1.40;;;20.90;74.40;;;;;;10490967;28;20058;-57
2023/09/21 10:52:16;;;;;;;1.25;0.80;;;20.90;75.00;;;;;;10490471;28;20044;-58
2023/09/21 10:57:29;;;;;;;2.42;1.23;;;20.80;74.30;;;;;;10491338;28;20029;-56
2023/09/21 11:02:31;;;;;;;1.95;1.15;;;20.90;74.30;;;;;;10489300;28;20035;-56
2023/09/21 11:07:32;;;;;;;2.83;1.48;;;20.90;74.40;;;;;;10490892;28;20029;-57
2023/09/21 11:12:34;;;;;;;2.22;1.30;;;20.90;74.40;;;;;;10489280;28;20036;-57
2023/09/21 11:17:35;;;;;;;2.08;1.35;;;20.90;74.30;;;;;;10476089;28;20060;-58
2023/09/21 11:22:36;;;;;;;1.80;1.20;;;20.90;74.40;;;;;;10448066;28;20491;-57
2023/09/21 11:27:39;;;;;;;2.45;1.40;;;20.90;74.50;;;;;;10468804;28;20480;-58
2023/09/21 11:32:45;;;;;;;2.30;1.02;;;20.90;74.40;;;;;;10461049;28;20480;-57
2023/09/21 11:37:49;;;;;;;1.75;1.10;;;20.90;74.40;;;;;;10448958;28;20072;-58
2023/09/21 11:42:55;;;;;;;1.05;0.82;;;20.90;74.40;;;;;;10448151;28;20041;-58
2023/09/21 11:47:58;;;;;;;2.85;1.10;;;20.80;74.40;;;;;;10448738;28;20039;-58
2023/09/21 11:53:00;;;;;;;2.40;1.33;;;20.80;74.40;;;;;;10448343;28;20032;-58
2023/09/21 11:58:20;;;;;;;1.63;1.02;;;20.80;74.50;;;;;;10448613;28;20029;-58
2023/09/21 12:03:23;;;;;;;2.00;1.17;;;20.90;74.50;;;;;;10448227;28;20129;-58
2023/09/21 12:08:25;;;;;;;1.83;1.10;;;20.80;74.50;;;;;;10447950;28;20527;-58
2023/09/21 12:13:26;;;;;;;1.85;1.10;;;20.80;74.50;;;;;;10447401;28;20028;-58
2023/09/21 12:18:28;;;;;;;2.35;1.20;;;20.80;74.50;;;;;;10471747;28;20048;-56
2023/09/21 12:23:30;;;;;;;1.58;1.23;;;20.80;74.50;;;;;;10488951;28;20028;-57
2023/09/21 12:28:32;;;;;;;1.50;1.00;;;20.80;74.50;;;;;;10494967;28;20028;-58
2023/09/21 12:33:35;;;;;;;1.55;1.10;;;20.80;74.50;;;;;;10451632;28;20091;-58
2023/09/21 12:38:38;;;;;;;1.80;1.17;;;20.80;74.40;;;;;;10455595;28;20075;-57
2023/09/21 12:43:39;;;;;;;1.55;0.95;;;20.80;74.40;;;;;;10454775;28;20035;-57
2023/09/21 12:48:39;;;;;;;1.30;0.98;;;20.80;74.50;;;;;;10455161;28;20108;-57
2023/09/21 12:53:41;;;;;;;1.85;0.90;;;20.80;74.40;;;;;;10454636;28;20040;-57
2023/09/21 12:58:41;;;;;;;1.90;1.23;;;20.80;74.40;;;;;;10454642;28;20033;-58
2023/09/21 13:03:42;;;;;;;2.00;1.23;;;20.80;74.50;;;;;;10453550;28;20037;-58
2023/09/21 13:08:43;;;;;;;1.92;1.10;;;20.80;74.50;;;;;;10453918;28;20549;-57
2023/09/21 13:13:43;;;;;;;3.10;1.60;;;20.80;74.50;;;;;;10453297;28;20075;-57
2023/09/21 13:18:44;;;;;;;2.28;0.90;;;20.80;74.40;;;;;;10479681;28;20040;-58
2023/09/21 13:23:47;;;;;;;1.48;0.93;;;20.80;74.40;;;;;;10494453;28;20070;-58
2023/09/21 13:28:48;;;;;;;2.70;0.90;;;20.80;74.40;;;;;;10498837;28;20156;-58
2023/09/21 13:33:49;;;;;;;1.38;0.88;;;20.80;74.40;;;;;;10451495;28;20037;-58
2023/09/21 13:38:51;;;;;;;1.83;1.27;;;20.80;74.50;;;;;;10453194;28;20070;-58
2023/09/21 13:43:52;;;;;;;1.50;0.90;;;20.80;74.50;;;;;;10452203;28;20033;-58
2023/09/21 13:48:53;;;;;;;1.50;0.82;;;20.80;74.50;;;;;;10452320;28;20025;-56
2023/09/21 13:53:54;;;;;;;1.58;0.90;;;20.80;74.50;;;;;;10451575;28;20025;-58
2023/09/21 13:58:56;;;;;;;2.17;1.00;;;20.80;74.50;;;;;;10452488;28;20033;-57
2023/09/21 14:03:57;;;;;;;2.13;1.25;;;20.80;74.50;;;;;;10451363;28;20029;-57
2023/09/21 14:08:58;;;;;;;1.95;1.13;;;20.80;74.50;;;;;;10452018;28;20175;-58
2023/09/21 14:14:00;;;;;;;2.22;1.00;;;20.80;74.50;;;;;;10451020;28;20056;-57
2023/09/21 14:19:00;;;;;;;1.73;1.02;;;20.80;74.50;;;;;;10479170;28;20051;-57
2023/09/21 14:24:02;;;;;;;2.97;1.00;;;20.80;74.50;;;;;;10492042;28;20490;-57
2023/09/21 14:29:03;;;;;;;2.47;0.88;;;20.80;74.50;;;;;;10494884;28;20031;-57
2023/09/21 14:34:04;;;;;;;2.35;0.90;;;20.70;74.50;;;;;;10449409;28;20029;-58
2023/09/21 14:39:05;;;;;;;2.00;1.00;;;20.70;74.50;;;;;;10450887;28;20115;-58
2023/09/21 14:44:06;;;;;;;1.73;1.17;;;20.70;74.50;;;;;;10449651;28;20489;-57
2023/09/21 14:49:07;;;;;;;1.45;0.90;;;20.70;74.50;;;;;;10450179;28;20033;-58
2023/09/21 14:54:11;;;;;;;1.55;0.93;;;20.70;74.60;;;;;;10448787;28;20044;-57
2023/09/21 14:59:13;;;;;;;1.13;1.00;;;20.70;74.60;;;;;;10487089;28;20059;-58
2023/09/21 15:04:15;;;;;;;1.40;0.68;;;20.70;74.60;;;;;;10490819;28;20463;-58
2023/09/21 15:09:16;;;;;;;2.42;0.80;;;20.70;74.70;;;;;;10491282;28;20090;-58
2023/09/21 15:14:18;;;;;;;2.60;1.00;;;20.70;74.70;;;;;;10487656;28;20037;-58
2023/09/21 15:19:18;;;;;;;4.97;1.10;;;20.70;75.20;;;;;;10448888;28;20099;-56
2023/09/21 15:24:20;;;;;;;5.30;1.08;;;20.80;75.20;;;;;;10448567;28;20033;-57
2023/09/21 15:29:20;;;;;;;1.77;0.80;;;20.80;74.80;;;;;;10461764;28;20033;-57
2023/09/21 15:34:23;;;;;;;3.40;1.15;;;20.90;74.80;;;;;;10448139;28;20041;-57
2023/09/21 15:39:24;;;;;;;7.32;1.65;;;20.90;75.60;;;;;;10448946;28;20017;-59
2023/09/21 15:44:25;;;;;;;6.63;1.58;;;21.00;74.80;;;;;;10484189;28;20036;-58
2023/09/21 15:49:26;;;;;;;8.20;1.40;;;21.10;74.80;;;;;;10483709;28;20450;-58
2023/09/21 15:54:27;;;;;;;13.95;2.60;;;21.10;74.80;;;;;;10489107;28;20032;-57
2023/09/21 15:59:28;;;;;;;16.13;2.95;;;21.30;75.10;;;;;;10462386;28;20056;-56
2023/09/21 16:04:28;;;;;;;10.23;1.80;;;21.30;75.50;;;;;;10465339;28;20028;-56
2023/09/21 16:09:29;;;;;;;11.60;2.25;;;21.20;75.90;;;;;;10480601;28;20492;-56
2023/09/21 16:14:30;;;;;;;14.45;2.63;;;21.20;76.00;;;;;;10482322;28;20703;-56
2023/09/21 16:19:31;;;;;;;11.52;1.83;;;21.20;75.60;;;;;;10457873;28;20063;-55
2023/09/21 16:24:32;;;;;;;13.57;2.15;;;21.30;75.80;;;;;;10455302;28;20506;-57
2023/09/21 16:29:32;;;;;;;17.35;3.10;;;21.30;75.90;;;;;;10490122;28;20056;-57
2023/09/21 16:34:33;;;;;;;11.63;2.08;;;21.30;76.00;;;;;;10467636;28;20418;-58
2023/09/21 16:39:34;;;;;;;13.88;2.53;;;21.30;75.60;;;;;;10457328;28;20025;-59
2023/09/21 16:44:35;;;;;;;11.88;2.85;;;21.20;75.70;;;;;;10459811;28;20021;-58
2023/09/21 16:49:36;;;;;;;11.63;2.42;;;21.20;76.60;;;;;;10491643;28;20483;-59
2023/09/21 16:54:36;;;;;;;12.43;2.35;;;21.10;76.00;;;;;;10488028;28;20020;-58
2023/09/21 16:59:37;;;;;;;20.00;4.20;;;21.10;76.00;;;;;;10482610;28;20073;-56
2023/09/21 17:04:38;;;;;;;16.27;3.78;;;21.10;76.00;;;;;;10495336;28;20082;-58
2023/09/21 17:09:39;;;;;;;14.50;2.90;;;21.10;76.30;;;;;;10494597;28;20033;-58
2023/09/21 17:14:40;;;;;;;15.45;3.83;;;21.20;75.90;;;;;;10475414;28;20487;-59
2023/09/21 17:19:41;;;;;;;15.90;3.55;;;21.20;76.90;;;;;;10486618;28;20056;-58
2023/09/21 17:24:42;;;;;;;12.23;4.05;;;21.20;76.90;;;;;;10485024;28;20042;-58
2023/09/21 17:29:43;;;;;;;12.57;4.55;;;21.10;76.90;;;;;;10491356;28;20048;-58
2023/09/21 17:34:44;;;;;;;10.85;3.90;;;21.10;77.10;;;;;;10452402;28;20044;-58
2023/09/21 17:39:45;;;;;;;10.75;3.92;;;21.10;77.20;;;;;;10452638;28;20029;-58
2023/09/21 17:44:46;;;;;;;12.05;3.42;;;21.00;77.10;;;;;;10452580;28;20186;-59
2023/09/21 17:49:47;;;;;;;15.27;3.55;;;21.00;77.20;;;;;;10452129;28;20048;-59
2023/09/21 17:54:47;;;;;;;8.85;3.15;;;21.00;77.20;;;;;;10451922;28;20028;-59
2023/09/21 17:59:50;;;;;;;8.93;2.88;;;21.00;77.20;;;;;;10452249;28;20464;-59
2023/09/21 18:04:51;;;;;;;11.82;2.75;;;20.90;77.10;;;;;;10449576;28;20116;-59
2023/09/21 18:09:52;;;;;;;9.95;3.50;;;20.90;77.10;;;;;;10455470;28;20145;-56
2023/09/21 18:14:52;;;;;;;12.10;3.75;;;20.90;76.70;;;;;;10461028;28;20037;-57
2023/09/21 18:19:53;;;;;;;12.65;3.90;;;20.90;76.90;;;;;;10472826;28;20548;-58
2023/09/21 18:24:54;;;;;;;7.75;2.38;;;20.80;76.80;;;;;;10479299;28;20025;-58
2023/09/21 18:29:54;;;;;;;7.18;2.45;;;20.90;76.80;;;;;;10486890;28;20033;-57
2023/09/21 18:34:55;;;;;;;9.18;3.47;;;20.90;76.80;;;;;;10451563;28;20476;-57
2023/09/21 18:39:56;;;;;;;8.07;3.00;;;20.80;76.60;;;;;;10450992;28;20044;-57
2023/09/21 18:44:57;;;;;;;6.90;2.55;;;20.80;76.70;;;;;;10451280;28;20028;-58
2023/09/21 18:49:57;;;;;;;7.93;2.50;;;20.80;76.70;;;;;;10452950;28;20464;-58
2023/09/21 18:54:58;;;;;;;6.32;2.03;;;20.80;77.30;;;;;;10466731;28;20025;-57
2023/09/21 18:59:59;;;;;;;7.05;2.00;;;20.80;77.70;;;;;;10475998;28;20040;-58
2023/09/21 19:05:00;;;;;;;10.27;2.40;;;20.80;77.60;;;;;;10468610;28;20460;-57
2023/09/21 19:10:03;;;;;;;9.23;2.20;;;20.90;78.20;;;;;;10450508;28;20017;-58
2023/09/21 19:15:04;;;;;;;10.45;2.42;;;20.90;77.10;;;;;;10455700;28;20028;-58
2023/09/21 19:20:12;;;;;;;6.82;1.70;;;20.90;77.20;;;;;;10485683;28;20032;-58
2023/09/21 19:25:13;;;;;;;6.32;2.70;;;20.80;77.10;;;;;;10491468;28;20025;-59
2023/09/21 19:30:14;;;;;;;6.53;2.25;;;20.80;77.10;;;;;;10482502;28;20545;-58
2023/09/21 19:35:15;;;;;;;3.78;1.80;;;20.80;77.00;;;;;;10449946;28;20033;-59
2023/09/21 19:40:16;;;;;;;6.30;2.78;;;20.80;77.00;;;;;;10450696;28;20075;-57
2023/09/21 19:45:16;;;;;;;8.60;2.08;;;20.80;76.90;;;;;;10458664;28;20021;-58
2023/09/21 19:50:19;;;;;;;5.72;2.30;;;20.70;76.70;;;;;;10457596;28;20025;-58
2023/09/21 19:55:19;;;;;;;3.33;1.55;;;20.70;76.40;;;;;;10458185;28;20044;-58
2023/09/21 20:00:20;;;;;;;2.55;1.40;;;20.70;76.30;;;;;;10457443;28;20119;-58
2023/09/21 20:05:21;;;;;;;5.68;2.05;;;20.70;76.30;;;;;;10457433;28;20035;-58
2023/09/21 20:10:22;;;;;;;5.45;1.85;;;20.70;76.30;;;;;;10455187;28;20116;-58
2023/09/21 20:15:23;;;;;;;2.22;1.42;;;20.70;76.20;;;;;;10457017;28;20053;-58
2023/09/21 20:20:24;;;;;;;4.78;1.73;;;20.70;76.20;;;;;;10482833;28;20123;-58
2023/09/21 20:25:26;;;;;;;5.63;1.95;;;20.70;76.20;;;;;;10456493;28;20449;-58
2023/09/21 20:30:27;;;;;;;3.22;1.48;;;20.70;76.30;;;;;;10468943;28;20036;-59
2023/09/21 20:35:28;;;;;;;4.88;1.70;;;20.60;76.10;;;;;;10456545;28;20079;-58
2023/09/21 20:40:29;;;;;;;3.03;1.17;;;20.60;76.10;;;;;;10455976;28;20045;-57
2023/09/21 20:45:30;;;;;;;5.45;1.33;;;20.60;76.00;;;;;;10481182;28;20109;-58
2023/09/21 20:50:31;;;;;;;3.05;1.58;;;20.60;76.00;;;;;;10496690;28;20097;-58
2023/09/21 20:55:31;;;;;;;5.80;1.33;;;20.60;76.00;;;;;;10495749;28;20512;-58
2023/09/21 21:00:32;;;;;;;3.17;1.50;;;20.60;76.00;;;;;;10496287;28;20032;-58
2023/09/21 21:05:33;;;;;;;2.83;1.38;;;20.60;76.00;;;;;;10485876;28;20029;-58
2023/09/21 21:10:34;;;;;;;4.90;1.70;;;20.60;76.00;;;;;;10454497;28;20469;-59
2023/09/21 21:15:34;;;;;;;3.00;1.00;;;20.60;75.90;;;;;;10454600;28;20482;-58
2023/09/21 21:20:35;;;;;;;2.42;1.35;;;20.60;75.90;;;;;;10495747;28;20480;-57
2023/09/21 21:25:36;;;;;;;2.03;0.98;;;20.60;75.90;;;;;;10493472;28;20028;-58
2023/09/21 21:30:37;;;;;;;3.85;1.17;;;20.60;75.90;;;;;;10466095;28;20029;-58
2023/09/21 21:35:38;;;;;;;3.88;1.20;;;20.60;75.90;;;;;;10477826;28;20028;-58
2023/09/21 21:40:39;;;;;;;2.10;0.90;;;20.60;75.90;;;;;;10494607;28;20040;-58
2023/09/21 21:45:40;;;;;;;2.42;1.13;;;20.60;75.90;;;;;;10494986;28;20498;-58
2023/09/21 21:50:41;;;;;;;4.40;1.13;;;20.50;75.80;;;;;;10478848;28;20052;-57
2023/09/21 21:55:42;;;;;;;2.17;1.00;;;20.50;75.80;;;;;;10494272;28;20680;-58
2023/09/21 22:00:43;;;;;;;2.53;1.13;;;20.50;75.80;;;;;;10493545;28;20029;-58
2023/09/21 22:05:43;;;;;;;3.40;1.33;;;20.50;75.80;;;;;;10493701;28;20032;-58
2023/09/21 22:10:44;;;;;;;3.88;1.15;;;20.50;75.80;;;;;;10493385;28;20069;-57
2023/09/21 22:15:45;;;;;;;2.85;1.08;;;20.50;75.80;;;;;;10477416;28;20044;-58
2023/09/21 22:20:46;;;;;;;2.35;1.00;;;20.50;75.80;;;;;;10451593;28;20029;-58
2023/09/21 22:25:49;;;;;;;2.05;0.90;;;20.50;75.80;;;;;;10451825;28;20035;-57
2023/09/21 22:30:50;;;;;;;1.95;1.20;;;20.50;75.80;;;;;;10465361;28;20120;-58
2023/09/21 22:35:50;;;;;;;1.63;0.90;;;20.50;75.70;;;;;;10451631;28;20017;-59
2023/09/21 22:40:55;;;;;;;1.77;0.90;;;20.50;75.80;;;;;;10451414;28;20037;-58
2023/09/21 22:46:06;;;;;;;1.83;0.90;;;20.50;75.80;;;;;;10451055;28;20383;-58
2023/09/21 22:51:06;;;;;;;1.80;1.10;;;20.50;75.80;;;;;;10450933;28;20048;-58
2023/09/21 22:56:07;;;;;;;1.92;1.20;;;20.50;75.80;;;;;;10451459;28;20036;-58
2023/09/21 23:01:10;;;;;;;1.88;0.90;;;20.50;75.90;;;;;;10450491;28;20150;-58
2023/09/21 23:06:10;;;;;;;2.17;1.05;;;20.50;75.90;;;;;;10450535;28;20033;-57
2023/09/21 23:11:12;;;;;;;2.88;1.20;;;20.50;75.90;;;;;;10448634;28;20082;-57
2023/09/21 23:16:12;;;;;;;2.85;1.35;;;20.40;75.90;;;;;;10460130;28;20047;-56
2023/09/21 23:21:14;;;;;;;1.50;0.90;;;20.50;75.90;;;;;;10491418;28;20024;-58
2023/09/21 23:26:17;;;;;;;3.05;1.02;;;20.40;75.90;;;;;;10491305;28;20047;-58
2023/09/21 23:31:18;;;;;;;2.28;1.20;;;20.40;76.50;;;;;;10474975;28;20171;-58
2023/09/21 23:36:20;;;;;;;2.53;0.95;;;20.40;75.90;;;;;;10449925;28;20086;-57
2023/09/21 23:41:20;;;;;;;2.75;1.70;;;20.40;75.90;;;;;;10449617;28;20357;-59
2023/09/21 23:46:27;;;;;;;1.73;1.00;;;20.40;75.80;;;;;;10449998;28;20037;-58
2023/09/21 23:51:29;;;;;;;1.48;0.90;;;20.40;75.80;;;;;;10449481;28;20079;-58
2023/09/21 23:56:30;;;;;;;2.10;1.10;;;20.40;75.80;;;;;;10450085;28;20074;-58
